sensor_id;sensor_type;location;lat;lon;timestamp;P1;durP1;ratioP1;P2;durP2;ratioP2
5876;SDS011;2964;42.144;24.730;2022-09-16T00:01:39;14.90;;;4.67;;
5876;SDS011;2964;42.144;24.730;2022-09-16T00:04:05;9.33;;;4.97;;
5876;SDS011;2964;42.144;24.730;2022-09-16T00:06:32;11.47;;;4.57;;
5876;SDS011;2964;42.144;24.730;2022-09-16T00:08:59;5.87;;;4.17;;
5876;SDS011;2964;42.144;24.730;2022-09-16T00:11:26;10.40;;;4.53;;
5876;SDS011;2964;42.144;24.730;2022-09-16T00:13:55;7.87;;;4.10;;
5876;SDS011;2964;42.144;24.730;2022-09-16T00:16:25;9.37;;;3.87;;
5876;SDS011;2964;42.144;24.730;2022-09-16T00:18:53;11.97;;;4.80;;
5876;SDS011;2964;42.144;24.730;2022-09-16T00:21:21;11.30;;;4.97;;
5876;SDS011;2964;42.144;24.730;2022-09-16T00:23:47;9.07;;;4.30;;
5876;SDS011;2964;42.144;24.730;2022-09-16T00:26:14;11.73;;;4.93;;
5876;SDS011;2964;42.144;24.730;2022-09-16T00:28:41;10.77;;;4.77;;
5876;SDS011;2964;42.144;24.730;2022-09-16T00:31:09;10.20;;;5.37;;
5876;SDS011;2964;42.144;24.730;2022-09-16T00:33:36;10.93;;;4.87;;
5876;SDS011;2964;42.144;24.730;2022-09-16T00:36:04;9.37;;;4.80;;
5876;SDS011;2964;42.144;24.730;2022-09-16T00:38:31;10.17;;;4.70;;
5876;SDS011;2964;42.144;24.730;2022-09-16T00:40:58;10.97;;;4.83;;
5876;SDS011;2964;42.144;24.730;2022-09-16T00:43:25;7.20;;;5.00;;
5876;SDS011;2964;42.144;24.730;2022-09-16T00:45:54;8.77;;;4.50;;
5876;SDS011;2964;42.144;24.730;2022-09-16T00:48:26;9.50;;;4.77;;
5876;SDS011;2964;42.144;24.730;2022-09-16T00:50:56;5.93;;;4.47;;
5876;SDS011;2964;42.144;24.730;2022-09-16T00:53:25;7.97;;;4.83;;
5876;SDS011;2964;42.144;24.730;2022-09-16T00:55:55;7.37;;;4.10;;
5876;SDS011;2964;42.144;24.730;2022-09-16T00:58:26;7.23;;;4.87;;
5876;SDS011;2964;42.144;24.730;2022-09-16T01:00:59;7.97;;;4.70;;
5876;SDS011;2964;42.144;24.730;2022-09-16T01:03:27;12.23;;;5.43;;
5876;SDS011;2964;42.144;24.730;2022-09-16T01:05:56;11.13;;;4.90;;
5876;SDS011;2964;42.144;24.730;2022-09-16T01:08:23;11.30;;;5.67;;
5876;SDS011;2964;42.144;24.730;2022-09-16T01:10:50;8.00;;;5.17;;
5876;SDS011;2964;42.144;24.730;2022-09-16T01:13:18;10.60;;;4.97;;
5876;SDS011;2964;42.144;24.730;2022-09-16T01:15:47;13.90;;;5.83;;
5876;SDS011;2964;42.144;24.730;2022-09-16T01:18:25;12.10;;;5.30;;
5876;SDS011;2964;42.144;24.730;2022-09-16T01:21:05;7.73;;;4.97;;
5876;SDS011;2964;42.144;24.730;2022-09-16T01:24:00;7.13;;;4.30;;
5876;SDS011;2964;42.144;24.730;2022-09-16T01:26:57;5.67;;;4.87;;
5876;SDS011;2964;42.144;24.730;2022-09-16T01:30:04;17.90;;;5.37;;
5876;SDS011;2964;42.144;24.730;2022-09-16T01:32:47;7.33;;;5.43;;
5876;SDS011;2964;42.144;24.730;2022-09-16T01:35:24;5.83;;;5.07;;
5876;SDS011;2964;42.144;24.730;2022-09-16T01:38:00;8.70;;;5.43;;
5876;SDS011;2964;42.144;24.730;2022-09-16T01:40:40;10.13;;;5.47;;
5876;SDS011;2964;42.144;24.730;2022-09-16T01:43:16;10.27;;;5.60;;
5876;SDS011;2964;42.144;24.730;2022-09-16T01:45:48;10.27;;;5.10;;
5876;SDS011;2964;42.144;24.730;2022-09-16T01:48:22;12.27;;;6.03;;
5876;SDS011;2964;42.144;24.730;2022-09-16T01:50:57;8.37;;;5.20;;
5876;SDS011;2964;42.144;24.730;2022-09-16T01:53:27;9.17;;;5.70;;
5876;SDS011;2964;42.144;24.730;2022-09-16T01:55:58;7.67;;;5.90;;
5876;SDS011;2964;42.144;24.730;2022-09-16T01:58:29;8.57;;;5.60;;
5876;SDS011;2964;42.144;24.730;2022-09-16T02:01:06;12.60;;;5.23;;
5876;SDS011;2964;42.144;24.730;2022-09-16T02:03:38;7.10;;;5.33;;
5876;SDS011;2964;42.144;24.730;2022-09-16T02:06:08;6.90;;;5.17;;
5876;SDS011;2964;42.144;24.730;2022-09-16T02:08:39;12.90;;;6.00;;
5876;SDS011;2964;42.144;24.730;2022-09-16T02:11:11;8.60;;;4.97;;
5876;SDS011;2964;42.144;24.730;2022-09-16T02:13:41;12.03;;;5.27;;
5876;SDS011;2964;42.144;24.730;2022-09-16T02:16:13;6.83;;;5.30;;
5876;SDS011;2964;42.144;24.730;2022-09-16T02:18:47;13.47;;;5.30;;
5876;SDS011;2964;42.144;24.730;2022-09-16T02:21:18;13.23;;;5.60;;
5876;SDS011;2964;42.144;24.730;2022-09-16T02:23:49;8.50;;;4.93;;
5876;SDS011;2964;42.144;24.730;2022-09-16T02:26:20;13.43;;;5.30;;
5876;SDS011;2964;42.144;24.730;2022-09-16T02:28:52;13.40;;;5.43;;
5876;SDS011;2964;42.144;24.730;2022-09-16T02:31:21;10.53;;;4.87;;
5876;SDS011;2964;42.144;24.730;2022-09-16T02:33:54;10.37;;;5.73;;
5876;SDS011;2964;42.144;24.730;2022-09-16T02:36:25;8.27;;;5.80;;
5876;SDS011;2964;42.144;24.730;2022-09-16T02:38:54;14.27;;;5.63;;
5876;SDS011;2964;42.144;24.730;2022-09-16T02:41:26;11.90;;;6.37;;
5876;SDS011;2964;42.144;24.730;2022-09-16T02:43:53;10.20;;;5.67;;
5876;SDS011;2964;42.144;24.730;2022-09-16T02:46:21;17.00;;;6.63;;
5876;SDS011;2964;42.144;24.730;2022-09-16T02:48:56;19.57;;;6.83;;
5876;SDS011;2964;42.144;24.730;2022-09-16T02:51:32;14.43;;;6.27;;
5876;SDS011;2964;42.144;24.730;2022-09-16T02:54:05;10.67;;;6.27;;
5876;SDS011;2964;42.144;24.730;2022-09-16T02:56:39;12.53;;;5.93;;
5876;SDS011;2964;42.144;24.730;2022-09-16T02:59:07;16.77;;;6.10;;
5876;SDS011;2964;42.144;24.730;2022-09-16T03:01:37;12.00;;;5.77;;
5876;SDS011;2964;42.144;24.730;2022-09-16T03:04:07;11.73;;;5.33;;
5876;SDS011;2964;42.144;24.730;2022-09-16T03:06:35;8.30;;;5.83;;
5876;SDS011;2964;42.144;24.730;2022-09-16T03:09:03;11.03;;;5.80;;
5876;SDS011;2964;42.144;24.730;2022-09-16T03:11:44;14.60;;;6.43;;
5876;SDS011;2964;42.144;24.730;2022-09-16T03:14:27;12.83;;;6.83;;
5876;SDS011;2964;42.144;24.730;2022-09-16T03:17:25;11.80;;;5.93;;
5876;SDS011;2964;42.144;24.730;2022-09-16T03:20:06;10.13;;;6.23;;
5876;SDS011;2964;42.144;24.730;2022-09-16T03:22:43;18.00;;;6.63;;
5876;SDS011;2964;42.144;24.730;2022-09-16T03:25:18;19.93;;;7.20;;
5876;SDS011;2964;42.144;24.730;2022-09-16T03:27:55;10.47;;;5.70;;
5876;SDS011;2964;42.144;24.730;2022-09-16T03:30:27;12.60;;;5.73;;
5876;SDS011;2964;42.144;24.730;2022-09-16T03:32:58;11.23;;;5.10;;
5876;SDS011;2964;42.144;24.730;2022-09-16T03:35:32;10.73;;;5.50;;
5876;SDS011;2964;42.144;24.730;2022-09-16T03:38:04;14.27;;;5.60;;
5876;SDS011;2964;42.144;24.730;2022-09-16T03:40:33;9.40;;;6.20;;
5876;SDS011;2964;42.144;24.730;2022-09-16T03:43:08;11.23;;;5.77;;
5876;SDS011;2964;42.144;24.730;2022-09-16T03:45:35;11.63;;;5.90;;
5876;SDS011;2964;42.144;24.730;2022-09-16T03:48:04;13.83;;;6.07;;
5876;SDS011;2964;42.144;24.730;2022-09-16T03:50:33;13.33;;;5.40;;
5876;SDS011;2964;42.144;24.730;2022-09-16T03:52:59;19.10;;;6.50;;
5876;SDS011;2964;42.144;24.730;2022-09-16T03:55:26;12.97;;;6.57;;
5876;SDS011;2964;42.144;24.730;2022-09-16T03:57:53;12.70;;;6.10;;
5876;SDS011;2964;42.144;24.730;2022-09-16T04:00:20;14.53;;;6.53;;
5876;SDS011;2964;42.144;24.730;2022-09-16T04:02:47;10.77;;;5.93;;
5876;SDS011;2964;42.144;24.730;2022-09-16T04:05:14;16.43;;;6.10;;
5876;SDS011;2964;42.144;24.730;2022-09-16T04:07:42;16.50;;;7.50;;
5876;SDS011;2964;42.144;24.730;2022-09-16T04:10:09;11.27;;;5.70;;
5876;SDS011;2964;42.144;24.730;2022-09-16T04:12:36;11.93;;;6.57;;
5876;SDS011;2964;42.144;24.730;2022-09-16T04:15:03;14.63;;;6.57;;
5876;SDS011;2964;42.144;24.730;2022-09-16T04:17:30;15.90;;;6.50;;
5876;SDS011;2964;42.144;24.730;2022-09-16T04:19:57;20.23;;;8.50;;
5876;SDS011;2964;42.144;24.730;2022-09-16T04:22:26;16.97;;;7.00;;
5876;SDS011;2964;42.144;24.730;2022-09-16T04:24:56;18.93;;;8.10;;
5876;SDS011;2964;42.144;24.730;2022-09-16T04:27:22;14.57;;;6.57;;
5876;SDS011;2964;42.144;24.730;2022-09-16T04:29:49;23.40;;;7.00;;
5876;SDS011;2964;42.144;24.730;2022-09-16T04:32:16;31.43;;;7.60;;
5876;SDS011;2964;42.144;24.730;2022-09-16T04:34:43;16.07;;;7.23;;
5876;SDS011;2964;42.144;24.730;2022-09-16T04:37:09;22.83;;;6.77;;
5876;SDS011;2964;42.144;24.730;2022-09-16T04:39:36;17.93;;;7.03;;
5876;SDS011;2964;42.144;24.730;2022-09-16T04:42:04;31.83;;;7.43;;
5876;SDS011;2964;42.144;24.730;2022-09-16T04:44:31;23.13;;;8.53;;
5876;SDS011;2964;42.144;24.730;2022-09-16T04:46:58;23.20;;;8.40;;
5876;SDS011;2964;42.144;24.730;2022-09-16T04:49:25;23.47;;;8.10;;
5876;SDS011;2964;42.144;24.730;2022-09-16T04:51:51;22.10;;;8.23;;
5876;SDS011;2964;42.144;24.730;2022-09-16T04:54:18;26.33;;;8.87;;
5876;SDS011;2964;42.144;24.730;2022-09-16T04:56:45;34.00;;;8.97;;
5876;SDS011;2964;42.144;24.730;2022-09-16T04:59:13;21.80;;;9.07;;
5876;SDS011;2964;42.144;24.730;2022-09-16T05:01:40;23.77;;;7.83;;
5876;SDS011;2964;42.144;24.730;2022-09-16T05:04:07;19.37;;;9.57;;
5876;SDS011;2964;42.144;24.730;2022-09-16T05:06:35;13.10;;;7.30;;
5876;SDS011;2964;42.144;24.730;2022-09-16T05:09:05;22.50;;;7.83;;
5876;SDS011;2964;42.144;24.730;2022-09-16T05:11:32;18.30;;;9.03;;
5876;SDS011;2964;42.144;24.730;2022-09-16T05:14:01;23.87;;;7.43;;
5876;SDS011;2964;42.144;24.730;2022-09-16T05:16:31;21.03;;;9.00;;
5876;SDS011;2964;42.144;24.730;2022-09-16T05:18:59;11.43;;;6.50;;
5876;SDS011;2964;42.144;24.730;2022-09-16T05:21:28;18.17;;;7.07;;
5876;SDS011;2964;42.144;24.730;2022-09-16T05:23:58;22.97;;;6.77;;
5876;SDS011;2964;42.144;24.730;2022-09-16T05:26:27;17.00;;;7.50;;
5876;SDS011;2964;42.144;24.730;2022-09-16T05:28:58;10.77;;;6.20;;
5876;SDS011;2964;42.144;24.730;2022-09-16T05:31:27;16.08;;;7.25;;
5876;SDS011;2964;42.144;24.730;2022-09-16T05:33:57;13.13;;;6.38;;
5876;SDS011;2964;42.144;24.730;2022-09-16T05:36:26;15.40;;;6.65;;
5876;SDS011;2964;42.144;24.730;2022-09-16T05:38:54;14.18;;;6.45;;
5876;SDS011;2964;42.144;24.730;2022-09-16T05:41:21;14.40;;;6.22;;
5876;SDS011;2964;42.144;24.730;2022-09-16T05:43:47;13.85;;;5.93;;
5876;SDS011;2964;42.144;24.730;2022-09-16T05:46:16;17.05;;;6.82;;
5876;SDS011;2964;42.144;24.730;2022-09-16T05:48:44;13.23;;;6.13;;
5876;SDS011;2964;42.144;24.730;2022-09-16T05:51:13;23.77;;;6.90;;
5876;SDS011;2964;42.144;24.730;2022-09-16T05:53:41;13.52;;;6.05;;
5876;SDS011;2964;42.144;24.730;2022-09-16T05:56:10;13.20;;;5.43;;
5876;SDS011;2964;42.144;24.730;2022-09-16T05:58:39;8.60;;;5.88;;
5876;SDS011;2964;42.144;24.730;2022-09-16T06:01:07;14.68;;;5.90;;
5876;SDS011;2964;42.144;24.730;2022-09-16T06:03:35;17.92;;;7.95;;
5876;SDS011;2964;42.144;24.730;2022-09-16T06:06:04;13.18;;;7.25;;
5876;SDS011;2964;42.144;24.730;2022-09-16T06:08:34;15.95;;;8.43;;
5876;SDS011;2964;42.144;24.730;2022-09-16T06:11:01;18.33;;;6.78;;
5876;SDS011;2964;42.144;24.730;2022-09-16T06:13:29;14.57;;;7.55;;
5876;SDS011;2964;42.144;24.730;2022-09-16T06:15:56;20.25;;;6.65;;
5876;SDS011;2964;42.144;24.730;2022-09-16T06:18:23;13.77;;;6.78;;
5876;SDS011;2964;42.144;24.730;2022-09-16T06:20:51;17.52;;;6.90;;
5876;SDS011;2964;42.144;24.730;2022-09-16T06:23:18;27.45;;;6.60;;
5876;SDS011;2964;42.144;24.730;2022-09-16T06:25:47;17.60;;;7.28;;
5876;SDS011;2964;42.144;24.730;2022-09-16T06:28:14;14.32;;;6.72;;
5876;SDS011;2964;42.144;24.730;2022-09-16T06:30:41;19.23;;;7.07;;
5876;SDS011;2964;42.144;24.730;2022-09-16T06:33:08;18.23;;;7.70;;
5876;SDS011;2964;42.144;24.730;2022-09-16T06:35:39;23.73;;;7.72;;
5876;SDS011;2964;42.144;24.730;2022-09-16T06:38:06;20.27;;;7.50;;
5876;SDS011;2964;42.144;24.730;2022-09-16T06:40:33;18.50;;;7.55;;
5876;SDS011;2964;42.144;24.730;2022-09-16T06:43:01;25.83;;;7.78;;
5876;SDS011;2964;42.144;24.730;2022-09-16T06:45:28;24.27;;;7.60;;
5876;SDS011;2964;42.144;24.730;2022-09-16T06:47:57;20.73;;;7.30;;
5876;SDS011;2964;42.144;24.730;2022-09-16T06:50:25;13.10;;;7.28;;
5876;SDS011;2964;42.144;24.730;2022-09-16T06:52:52;17.50;;;6.95;;
5876;SDS011;2964;42.144;24.730;2022-09-16T06:55:18;23.30;;;7.85;;
5876;SDS011;2964;42.144;24.730;2022-09-16T06:57:45;17.63;;;6.88;;
5876;SDS011;2964;42.144;24.730;2022-09-16T07:00:14;16.38;;;7.10;;
5876;SDS011;2964;42.144;24.730;2022-09-16T07:02:41;16.50;;;7.18;;
5876;SDS011;2964;42.144;24.730;2022-09-16T07:05:08;21.45;;;7.18;;
5876;SDS011;2964;42.144;24.730;2022-09-16T07:07:36;17.23;;;7.63;;
5876;SDS011;2964;42.144;24.730;2022-09-16T07:10:03;22.33;;;7.38;;
5876;SDS011;2964;42.144;24.730;2022-09-16T07:12:31;21.33;;;6.97;;
5876;SDS011;2964;42.144;24.730;2022-09-16T07:14:57;14.77;;;6.03;;
5876;SDS011;2964;42.144;24.730;2022-09-16T07:17:25;18.40;;;7.30;;
5876;SDS011;2964;42.144;24.730;2022-09-16T07:19:52;17.88;;;5.50;;
5876;SDS011;2964;42.144;24.730;2022-09-16T07:22:19;19.52;;;5.70;;
5876;SDS011;2964;42.144;24.730;2022-09-16T07:24:46;20.10;;;5.22;;
5876;SDS011;2964;42.144;24.730;2022-09-16T07:27:13;18.83;;;6.45;;
5876;SDS011;2964;42.144;24.730;2022-09-16T07:29:39;16.73;;;5.75;;
5876;SDS011;2964;42.144;24.730;2022-09-16T07:32:06;16.33;;;5.80;;
5876;SDS011;2964;42.144;24.730;2022-09-16T07:34:34;9.65;;;5.20;;
5876;SDS011;2964;42.144;24.730;2022-09-16T07:37:01;13.00;;;6.65;;
5876;SDS011;2964;42.144;24.730;2022-09-16T07:39:28;16.65;;;6.88;;
5876;SDS011;2964;42.144;24.730;2022-09-16T07:41:55;16.90;;;5.65;;
5876;SDS011;2964;42.144;24.730;2022-09-16T07:44:21;18.50;;;5.63;;
5876;SDS011;2964;42.144;24.730;2022-09-16T07:46:48;11.55;;;5.95;;
5876;SDS011;2964;42.144;24.730;2022-09-16T07:49:15;13.68;;;5.45;;
5876;SDS011;2964;42.144;24.730;2022-09-16T07:51:43;13.70;;;4.72;;
5876;SDS011;2964;42.144;24.730;2022-09-16T07:54:12;19.13;;;6.32;;
5876;SDS011;2964;42.144;24.730;2022-09-16T07:56:40;18.50;;;6.28;;
5876;SDS011;2964;42.144;24.730;2022-09-16T07:59:10;16.77;;;6.15;;
5876;SDS011;2964;42.144;24.730;2022-09-16T08:01:38;24.25;;;6.88;;
5876;SDS011;2964;42.144;24.730;2022-09-16T08:04:05;43.63;;;12.23;;
5876;SDS011;2964;42.144;24.730;2022-09-16T08:06:32;24.90;;;5.63;;
5876;SDS011;2964;42.144;24.730;2022-09-16T08:09:00;14.80;;;5.60;;
5876;SDS011;2964;42.144;24.730;2022-09-16T08:11:27;20.73;;;5.93;;
5876;SDS011;2964;42.144;24.730;2022-09-16T08:13:56;21.75;;;4.85;;
5876;SDS011;2964;42.144;24.730;2022-09-16T08:16:24;18.25;;;6.47;;
5876;SDS011;2964;42.144;24.730;2022-09-16T08:18:53;16.85;;;6.00;;
5876;SDS011;2964;42.144;24.730;2022-09-16T08:21:23;27.00;;;6.57;;
5876;SDS011;2964;42.144;24.730;2022-09-16T08:23:52;18.98;;;5.10;;
5876;SDS011;2964;42.144;24.730;2022-09-16T08:26:21;14.63;;;7.25;;
5876;SDS011;2964;42.144;24.730;2022-09-16T08:28:48;22.20;;;6.88;;
5876;SDS011;2964;42.144;24.730;2022-09-16T08:31:15;21.58;;;5.30;;
5876;SDS011;2964;42.144;24.730;2022-09-16T08:33:43;26.65;;;5.93;;
5876;SDS011;2964;42.144;24.730;2022-09-16T08:36:11;27.58;;;5.68;;
5876;SDS011;2964;42.144;24.730;2022-09-16T08:38:40;9.07;;;4.93;;
5876;SDS011;2964;42.144;24.730;2022-09-16T08:41:15;12.65;;;5.88;;
5876;SDS011;2964;42.144;24.730;2022-09-16T08:44:01;23.23;;;6.18;;
5876;SDS011;2964;42.144;24.730;2022-09-16T08:46:35;16.67;;;5.82;;
5876;SDS011;2964;42.144;24.730;2022-09-16T08:49:12;20.73;;;5.65;;
5876;SDS011;2964;42.144;24.730;2022-09-16T08:51:46;20.90;;;6.07;;
5876;SDS011;2964;42.144;24.730;2022-09-16T08:54:17;24.63;;;5.97;;
5876;SDS011;2964;42.144;24.730;2022-09-16T08:56:54;13.95;;;5.60;;
5876;SDS011;2964;42.144;24.730;2022-09-16T08:59:28;25.55;;;7.40;;
5876;SDS011;2964;42.144;24.730;2022-09-16T09:02:01;18.15;;;7.05;;
5876;SDS011;2964;42.144;24.730;2022-09-16T09:04:49;18.85;;;7.57;;
5876;SDS011;2964;42.144;24.730;2022-09-16T09:07:16;15.07;;;6.72;;
5876;SDS011;2964;42.144;24.730;2022-09-16T09:09:53;15.25;;;5.35;;
5876;SDS011;2964;42.144;24.730;2022-09-16T09:12:31;17.20;;;6.18;;
5876;SDS011;2964;42.144;24.730;2022-09-16T09:15:06;24.67;;;6.22;;
5876;SDS011;2964;42.144;24.730;2022-09-16T09:17:44;14.82;;;5.95;;
5876;SDS011;2964;42.144;24.730;2022-09-16T09:20:24;16.40;;;5.63;;
5876;SDS011;2964;42.144;24.730;2022-09-16T09:23:12;18.20;;;5.80;;
5876;SDS011;2964;42.144;24.730;2022-09-16T09:25:51;11.88;;;5.85;;
5876;SDS011;2964;42.144;24.730;2022-09-16T09:28:33;17.40;;;5.93;;
5876;SDS011;2964;42.144;24.730;2022-09-16T09:31:13;21.08;;;5.90;;
5876;SDS011;2964;42.144;24.730;2022-09-16T09:33:50;16.90;;;5.93;;
5876;SDS011;2964;42.144;24.730;2022-09-16T09:36:36;17.20;;;7.18;;
5876;SDS011;2964;42.144;24.730;2022-09-16T09:39:16;19.55;;;6.75;;
5876;SDS011;2964;42.144;24.730;2022-09-16T09:41:57;23.20;;;5.70;;
5876;SDS011;2964;42.144;24.730;2022-09-16T09:44:35;29.45;;;7.25;;
5876;SDS011;2964;42.144;24.730;2022-09-16T09:47:10;21.30;;;6.95;;
5876;SDS011;2964;42.144;24.730;2022-09-16T09:49:43;33.28;;;9.77;;
5876;SDS011;2964;42.144;24.730;2022-09-16T09:52:13;13.35;;;5.82;;
5876;SDS011;2964;42.144;24.730;2022-09-16T09:54:44;19.40;;;6.13;;
5876;SDS011;2964;42.144;24.730;2022-09-16T09:57:16;16.02;;;5.68;;
5876;SDS011;2964;42.144;24.730;2022-09-16T09:59:54;13.82;;;6.47;;
5876;SDS011;2964;42.144;24.730;2022-09-16T10:02:25;21.40;;;6.72;;
5876;SDS011;2964;42.144;24.730;2022-09-16T10:04:52;9.60;;;6.63;;
5876;SDS011;2964;42.144;24.730;2022-09-16T10:07:20;17.25;;;6.22;;
5876;SDS011;2964;42.144;24.730;2022-09-16T10:09:55;16.27;;;6.10;;
5876;SDS011;2964;42.144;24.730;2022-09-16T10:12:27;18.55;;;6.53;;
5876;SDS011;2964;42.144;24.730;2022-09-16T10:14:57;28.13;;;7.25;;
5876;SDS011;2964;42.144;24.730;2022-09-16T10:17:25;17.35;;;6.72;;
5876;SDS011;2964;42.144;24.730;2022-09-16T10:19:56;19.65;;;6.90;;
5876;SDS011;2964;42.144;24.730;2022-09-16T10:22:25;23.17;;;6.50;;
5876;SDS011;2964;42.144;24.730;2022-09-16T10:24:54;21.02;;;6.25;;
5876;SDS011;2964;42.144;24.730;2022-09-16T10:27:24;14.90;;;5.47;;
5876;SDS011;2964;42.144;24.730;2022-09-16T10:30:13;12.40;;;5.63;;
5876;SDS011;2964;42.144;24.730;2022-09-16T10:32:45;15.15;;;5.30;;
5876;SDS011;2964;42.144;24.730;2022-09-16T10:35:19;14.23;;;5.53;;
5876;SDS011;2964;42.144;24.730;2022-09-16T10:37:49;16.42;;;5.85;;
5876;SDS011;2964;42.144;24.730;2022-09-16T10:40:18;16.92;;;6.75;;
5876;SDS011;2964;42.144;24.730;2022-09-16T10:42:47;14.10;;;5.82;;
5876;SDS011;2964;42.144;24.730;2022-09-16T10:45:19;21.67;;;7.13;;
5876;SDS011;2964;42.144;24.730;2022-09-16T10:47:51;21.92;;;6.18;;
5876;SDS011;2964;42.144;24.730;2022-09-16T10:50:22;22.30;;;7.05;;
5876;SDS011;2964;42.144;24.730;2022-09-16T10:52:49;22.00;;;8.95;;
5876;SDS011;2964;42.144;24.730;2022-09-16T10:55:20;17.48;;;6.35;;
5876;SDS011;2964;42.144;24.730;2022-09-16T10:57:53;21.77;;;9.25;;
5876;SDS011;2964;42.144;24.730;2022-09-16T11:00:34;12.02;;;5.28;;
5876;SDS011;2964;42.144;24.730;2022-09-16T11:06:23;11.60;;;5.82;;
5876;SDS011;2964;42.144;24.730;2022-09-16T11:09:04;21.10;;;6.88;;
5876;SDS011;2964;42.144;24.730;2022-09-16T11:11:41;18.20;;;6.88;;
5876;SDS011;2964;42.144;24.730;2022-09-16T11:14:18;22.83;;;5.68;;
5876;SDS011;2964;42.144;24.730;2022-09-16T11:17:00;11.77;;;7.25;;
5876;SDS011;2964;42.144;24.730;2022-09-16T11:19:38;11.02;;;6.55;;
5876;SDS011;2964;42.144;24.730;2022-09-16T11:22:17;16.42;;;5.60;;
5876;SDS011;2964;42.144;24.730;2022-09-16T11:25:20;17.98;;;4.78;;
5876;SDS011;2964;42.144;24.730;2022-09-16T11:28:14;15.88;;;5.70;;
5876;SDS011;2964;42.144;24.730;2022-09-16T11:31:04;18.38;;;6.03;;
5876;SDS011;2964;42.144;24.730;2022-09-16T11:33:38;11.13;;;6.53;;
5876;SDS011;2964;42.144;24.730;2022-09-16T11:36:22;17.88;;;6.22;;
5876;SDS011;2964;42.144;24.730;2022-09-16T11:39:05;20.50;;;6.55;;
5876;SDS011;2964;42.144;24.730;2022-09-16T11:41:53;15.27;;;6.45;;
5876;SDS011;2964;42.144;24.730;2022-09-16T11:44:29;21.42;;;6.90;;
5876;SDS011;2964;42.144;24.730;2022-09-16T11:47:10;18.58;;;7.15;;
5876;SDS011;2964;42.144;24.730;2022-09-16T11:49:54;16.98;;;6.93;;
5876;SDS011;2964;42.144;24.730;2022-09-16T11:52:34;20.88;;;7.50;;
5876;SDS011;2964;42.144;24.730;2022-09-16T11:55:26;14.57;;;7.10;;
5876;SDS011;2964;42.144;24.730;2022-09-16T11:58:03;18.70;;;6.78;;
5876;SDS011;2964;42.144;24.730;2022-09-16T12:00:40;15.93;;;6.32;;
5876;SDS011;2964;42.144;24.730;2022-09-16T12:03:09;18.48;;;6.88;;
5876;SDS011;2964;42.144;24.730;2022-09-16T12:05:45;20.05;;;7.15;;
5876;SDS011;2964;42.144;24.730;2022-09-16T12:08:18;21.05;;;9.57;;
5876;SDS011;2964;42.144;24.730;2022-09-16T12:10:53;19.67;;;7.40;;
5876;SDS011;2964;42.144;24.730;2022-09-16T12:13:25;21.63;;;9.10;;
5876;SDS011;2964;42.144;24.730;2022-09-16T12:15:54;19.48;;;8.02;;
5876;SDS011;2964;42.144;24.730;2022-09-16T12:18:25;20.95;;;11.90;;
5876;SDS011;2964;42.144;24.730;2022-09-16T12:21:00;21.15;;;6.63;;
5876;SDS011;2964;42.144;24.730;2022-09-16T12:23:34;20.63;;;6.88;;
5876;SDS011;2964;42.144;24.730;2022-09-16T12:26:06;15.52;;;5.97;;
5876;SDS011;2964;42.144;24.730;2022-09-16T12:28:37;21.83;;;6.20;;
5876;SDS011;2964;42.144;24.730;2022-09-16T12:31:11;19.02;;;8.32;;
5876;SDS011;2964;42.144;24.730;2022-09-16T12:33:43;14.00;;;5.93;;
5876;SDS011;2964;42.144;24.730;2022-09-16T12:36:19;27.73;;;6.63;;
5876;SDS011;2964;42.144;24.730;2022-09-16T12:38:50;56.33;;;7.20;;
5876;SDS011;2964;42.144;24.730;2022-09-16T12:41:23;46.20;;;7.70;;
5876;SDS011;2964;42.144;24.730;2022-09-16T12:44:04;27.90;;;6.03;;
5876;SDS011;2964;42.144;24.730;2022-09-16T12:46:52;29.80;;;5.93;;
5876;SDS011;2964;42.144;24.730;2022-09-16T12:49:46;24.70;;;6.55;;
5876;SDS011;2964;42.144;24.730;2022-09-16T12:52:30;21.90;;;5.75;;
5876;SDS011;2964;42.144;24.730;2022-09-16T13:01:07;16.67;;;5.85;;
5876;SDS011;2964;42.144;24.730;2022-09-16T13:03:43;16.33;;;5.30;;
5876;SDS011;2964;42.144;24.730;2022-09-16T13:06:16;19.05;;;5.93;;
5876;SDS011;2964;42.144;24.730;2022-09-16T13:08:49;21.42;;;6.57;;
5876;SDS011;2964;42.144;24.730;2022-09-16T13:11:18;16.75;;;4.43;;
5876;SDS011;2964;42.144;24.730;2022-09-16T13:13:48;18.13;;;5.53;;
5876;SDS011;2964;42.144;24.730;2022-09-16T13:16:26;13.65;;;6.45;;
5876;SDS011;2964;42.144;24.730;2022-09-16T13:19:05;15.85;;;4.78;;
5876;SDS011;2964;42.144;24.730;2022-09-16T13:21:45;13.68;;;5.05;;
5876;SDS011;2964;42.144;24.730;2022-09-16T13:24:23;11.90;;;4.88;;
5876;SDS011;2964;42.144;24.730;2022-09-16T13:26:55;15.23;;;4.95;;
5876;SDS011;2964;42.144;24.730;2022-09-16T13:29:23;10.00;;;4.97;;
5876;SDS011;2964;42.144;24.730;2022-09-16T13:31:52;11.20;;;3.70;;
5876;SDS011;2964;42.144;24.730;2022-09-16T13:34:19;10.15;;;4.63;;
5876;SDS011;2964;42.144;24.730;2022-09-16T13:36:46;7.25;;;4.30;;
5876;SDS011;2964;42.144;24.730;2022-09-16T13:39:13;15.93;;;5.15;;
5876;SDS011;2964;42.144;24.730;2022-09-16T13:41:53;10.30;;;5.00;;
5876;SDS011;2964;42.144;24.730;2022-09-16T13:44:38;9.57;;;3.95;;
5876;SDS011;2964;42.144;24.730;2022-09-16T13:47:16;8.50;;;4.35;;
5876;SDS011;2964;42.144;24.730;2022-09-16T13:49:55;10.63;;;4.70;;
5876;SDS011;2964;42.144;24.730;2022-09-16T13:52:26;6.97;;;4.75;;
5876;SDS011;2964;42.144;24.730;2022-09-16T13:55:00;14.02;;;4.40;;
5876;SDS011;2964;42.144;24.730;2022-09-16T14:00:21;13.02;;;4.30;;
5876;SDS011;2964;42.144;24.730;2022-09-16T14:02:52;10.82;;;5.20;;
5876;SDS011;2964;42.144;24.730;2022-09-16T14:05:29;8.75;;;4.65;;
5876;SDS011;2964;42.144;24.730;2022-09-16T14:08:09;14.63;;;4.35;;
5876;SDS011;2964;42.144;24.730;2022-09-16T14:10:47;14.60;;;5.25;;
5876;SDS011;2964;42.144;24.730;2022-09-16T14:13:21;10.38;;;5.30;;
5876;SDS011;2964;42.144;24.730;2022-09-16T14:15:50;11.30;;;3.60;;
5876;SDS011;2964;42.144;24.730;2022-09-16T14:18:21;10.00;;;4.00;;
5876;SDS011;2964;42.144;24.730;2022-09-16T14:21:00;11.57;;;4.40;;
5876;SDS011;2964;42.144;24.730;2022-09-16T14:23:30;11.35;;;5.32;;
5876;SDS011;2964;42.144;24.730;2022-09-16T14:26:09;13.68;;;5.78;;
5876;SDS011;2964;42.144;24.730;2022-09-16T14:28:36;13.60;;;4.80;;
5876;SDS011;2964;42.144;24.730;2022-09-16T14:31:05;13.32;;;4.43;;
5876;SDS011;2964;42.144;24.730;2022-09-16T14:33:34;11.85;;;4.75;;
5876;SDS011;2964;42.144;24.730;2022-09-16T14:36:07;15.05;;;4.35;;
5876;SDS011;2964;42.144;24.730;2022-09-16T14:38:36;12.65;;;4.57;;
5876;SDS011;2964;42.144;24.730;2022-09-16T14:41:09;9.20;;;4.20;;
5876;SDS011;2964;42.144;24.730;2022-09-16T14:43:43;6.97;;;3.40;;
5876;SDS011;2964;42.144;24.730;2022-09-16T14:46:09;7.55;;;3.35;;
5876;SDS011;2964;42.144;24.730;2022-09-16T14:48:36;5.13;;;3.22;;
5876;SDS011;2964;42.144;24.730;2022-09-16T14:51:08;4.95;;;3.30;;
5876;SDS011;2964;42.144;24.730;2022-09-16T14:53:41;7.85;;;4.18;;
5876;SDS011;2964;42.144;24.730;2022-09-16T14:56:21;5.72;;;3.60;;
5876;SDS011;2964;42.144;24.730;2022-09-16T14:58:48;6.80;;;3.58;;
5876;SDS011;2964;42.144;24.730;2022-09-16T15:01:17;7.30;;;3.17;;
5876;SDS011;2964;42.144;24.730;2022-09-16T15:03:48;12.70;;;3.53;;
5876;SDS011;2964;42.144;24.730;2022-09-16T15:06:19;6.43;;;4.25;;
5876;SDS011;2964;42.144;24.730;2022-09-16T15:08:50;12.07;;;3.45;;
5876;SDS011;2964;42.144;24.730;2022-09-16T15:11:24;5.28;;;3.58;;
5876;SDS011;2964;42.144;24.730;2022-09-16T15:13:53;7.07;;;3.22;;
5876;SDS011;2964;42.144;24.730;2022-09-16T15:16:20;9.35;;;4.20;;
5876;SDS011;2964;42.144;24.730;2022-09-16T15:18:51;7.10;;;3.45;;
5876;SDS011;2964;42.144;24.730;2022-09-16T15:21:22;8.77;;;3.40;;
5876;SDS011;2964;42.144;24.730;2022-09-16T15:23:53;12.38;;;3.67;;
5876;SDS011;2964;42.144;24.730;2022-09-16T15:26:23;5.50;;;3.10;;
5876;SDS011;2964;42.144;24.730;2022-09-16T15:28:55;8.75;;;3.47;;
5876;SDS011;2964;42.144;24.730;2022-09-16T15:31:28;5.90;;;3.03;;